Time,TemperatureF,DewpointF,PressureIn,WindDirection,WindDirectionDegrees,WindSpeedMPH,WindSpeedGustMPH,Humidity,HourlyPrecipIn,Conditions,Clouds,dailyrainin,SoftwareType,DateUTC
2013-02-11 00:01:00,14.0,12.0,-100.00,WSW,248,4.0,5.0,88,-99.99,,,-99.99,,2013-02-11 07:01:00,
2013-02-11 00:11:00,14.0,12.0,-100.00,WSW,248,4.0,5.0,88,-99.99,,,-99.99,,2013-02-11 07:11:00,
2013-02-11 00:21:00,14.0,12.0,-100.00,WSW,248,4.0,5.0,88,-99.99,,,-99.99,,2013-02-11 07:21:00,
2013-02-11 00:32:00,14.0,11.0,-100.00,NW,312,0.0,3.0,87,-99.99,,,-99.99,,2013-02-11 07:32:00,
2013-02-11 00:41:00,14.0,11.0,-100.00,North,0,0.0,2.0,87,-99.99,,,-99.99,,2013-02-11 07:41:00,
2013-02-11 00:51:00,14.0,11.0,-100.00,North,0,0.0,2.0,87,-99.99,,,-99.99,,2013-02-11 07:51:00,
2013-02-11 01:01:00,14.0,11.0,-100.00,WNW,284,2.0,3.0,87,-99.99,,,-99.99,,2013-02-11 08:01:00,
2013-02-11 01:11:00,14.0,11.0,-100.00,WNW,284,2.0,3.0,87,-99.99,,,-99.99,,2013-02-11 08:11:00,
2013-02-11 01:21:00,13.0,10.0,-100.00,West,275,5.0,5.0,87,-99.99,,,-99.99,,2013-02-11 08:21:00,
2013-02-11 01:31:00,13.0,10.0,-100.00,West,274,4.0,4.0,88,-99.99,,,-99.99,,2013-02-11 08:31:00,
2013-02-11 01:42:00,14.0,11.0,-100.00,WSW,258,5.0,5.0,89,-99.99,,,-99.99,,2013-02-11 08:42:00,
2013-02-11 01:52:00,14.0,11.0,-100.00,WSW,258,5.0,5.0,89,-99.99,,,-99.99,,2013-02-11 08:52:00,
2013-02-11 02:01:00,12.0,9.0,-100.00,NE,43,1.0,3.0,88,-99.99,,,-99.99,,2013-02-11 09:01:00,
2013-02-11 02:12:00,12.0,9.0,-100.00,NE,43,1.0,3.0,88,-99.99,,,-99.99,,2013-02-11 09:12:00,
2013-02-11 02:21:00,11.0,9.0,-100.00,NE,43,2.0,2.0,88,-99.99,,,-99.99,,2013-02-11 09:21:00,
2013-02-11 02:31:00,11.0,9.0,-100.00,NE,43,1.0,2.0,88,-99.99,,,-99.99,,2013-02-11 09:31:00,
2013-02-11 02:41:00,11.0,9.0,-100.00,NW,306,1.0,3.0,89,-99.99,,,-99.99,,2013-02-11 09:41:00,
2013-02-11 02:51:00,11.0,9.0,-100.00,NW,306,1.0,3.0,89,-99.99,,,-99.99,,2013-02-11 09:51:00,
2013-02-11 03:01:00,11.0,9.0,-100.00,NNW,334,0.0,1.0,89,-99.99,,,-99.99,,2013-02-11 10:01:00,
2013-02-11 03:11:00,11.0,9.0,-100.00,NNW,334,0.0,1.0,89,-99.99,,,-99.99,,2013-02-11 10:11:00,
2013-02-11 03:21:00,11.0,9.0,-100.00,West,263,1.0,2.0,89,-99.99,,,-99.99,,2013-02-11 10:21:00,
2013-02-11 03:31:00,10.0,8.0,-100.00,West,277,0.0,3.0,89,-99.99,,,-99.99,,2013-02-11 10:31:00,
2013-02-11 03:41:00,10.0,8.0,-100.00,West,277,0.0,0.0,89,-99.99,,,-99.99,,2013-02-11 10:41:00,
2013-02-11 03:51:00,10.0,8.0,-100.00,West,277,0.0,0.0,89,-99.99,,,-99.99,,2013-02-11 10:51:00,
2013-02-11 04:01:00,10.0,7.0,-100.00,North,0,0.0,2.0,89,-99.99,,,-99.99,,2013-02-11 11:01:00,
2013-02-11 04:11:00,10.0,7.0,-100.00,North,0,0.0,2.0,89,-99.99,,,-99.99,,2013-02-11 11:11:00,
2013-02-11 04:21:00,10.0,8.0,-100.00,West,277,0.0,1.0,89,-99.99,,,-99.99,,2013-02-11 11:21:00,
2013-02-11 04:32:00,10.0,8.0,-100.00,West,277,0.0,1.0,89,-99.99,,,-99.99,,2013-02-11 11:32:00,
2013-02-11 04:42:00,9.0,6.0,-100.00,West,277,3.0,3.0,89,-99.99,,,-99.99,,2013-02-11 11:42:00,
2013-02-11 04:52:00,9.0,6.0,-100.00,West,277,3.0,3.0,89,-99.99,,,-99.99,,2013-02-11 11:52:00,
2013-02-11 05:02:00,9.0,6.0,-100.00,West,277,2.0,2.0,89,-99.99,,,-99.99,,2013-02-11 12:02:00,
2013-02-11 05:12:00,9.0,6.0,-100.00,West,277,2.0,2.0,89,-99.99,,,-99.99,,2013-02-11 12:12:00,
2013-02-11 05:22:00,9.0,7.0,-100.00,WSW,244,2.0,3.0,89,-99.99,,,-99.99,,2013-02-11 12:22:00,
2013-02-11 05:31:00,9.0,7.0,-100.00,ESE,119,2.0,4.0,89,-99.99,,,-99.99,,2013-02-11 12:31:00,
2013-02-11 05:42:00,9.0,6.0,-100.00,SE,134,1.0,2.0,89,-99.99,,,-99.99,,2013-02-11 12:42:00,
2013-02-11 05:52:00,9.0,6.0,-100.00,SE,134,1.0,2.0,89,-99.99,,,-99.99,,2013-02-11 12:52:00,
2013-02-11 06:01:00,8.0,5.0,-100.00,North,0,0.0,0.0,88,-99.99,,,-99.99,,2013-02-11 13:01:00,
2013-02-11 06:11:00,8.0,5.0,-100.00,North,0,0.0,0.0,88,-99.99,,,-99.99,,2013-02-11 13:11:00,
2013-02-11 06:21:00,8.0,5.0,-100.00,North,0,0.0,0.0,89,-99.99,,,-99.99,,2013-02-11 13:21:00,
2013-02-11 06:32:00,7.0,5.0,-100.00,SE,134,0.0,0.0,88,-99.99,,,-99.99,,2013-02-11 13:32:00,
2013-02-11 06:41:00,6.0,3.0,-100.00,East,99,1.0,3.0,89,-99.99,,,-99.99,,2013-02-11 13:41:00,
2013-02-11 06:51:00,6.0,3.0,-100.00,East,99,1.0,3.0,89,-99.99,,,-99.99,,2013-02-11 13:51:00,
2013-02-11 07:01:00,6.0,4.0,-100.00,East,99,0.0,1.0,88,-99.99,,,-99.99,,2013-02-11 14:01:00,
2013-02-11 07:11:00,6.0,4.0,-100.00,East,99,0.0,1.0,88,-99.99,,,-99.99,,2013-02-11 14:11:00,
2013-02-11 07:21:00,6.0,4.0,-100.00,East,100,0.0,2.0,88,-99.99,,,-99.99,,2013-02-11 14:21:00,
2013-02-11 07:32:00,5.0,2.0,-100.00,East,99,1.0,2.0,87,-99.99,,,-99.99,,2013-02-11 14:32:00,
2013-02-11 07:41:00,6.0,3.0,-100.00,East,100,1.0,2.0,88,-99.99,,,-99.99,,2013-02-11 14:41:00,
2013-02-11 07:52:00,6.0,3.0,-100.00,East,100,1.0,2.0,88,-99.99,,,-99.99,,2013-02-11 14:52:00,
2013-02-11 08:01:00,4.0,1.0,-100.00,East,99,1.0,3.0,86,-99.99,,,-99.99,,2013-02-11 15:01:00,
2013-02-11 08:11:00,4.0,1.0,-100.00,East,99,1.0,3.0,86,-99.99,,,-99.99,,2013-02-11 15:11:00,
2013-02-11 08:21:00,4.0,1.0,-100.00,East,99,1.0,3.0,86,-99.99,,,-99.99,,2013-02-11 15:21:00,
2013-02-11 08:32:00,5.0,2.0,-100.00,East,98,2.0,3.0,87,-99.99,,,-99.99,,2013-02-11 15:32:00,
2013-02-11 08:42:00,5.0,2.0,-100.00,East,98,2.0,3.0,87,-99.99,,,-99.99,,2013-02-11 15:42:00,
2013-02-11 08:51:00,5.0,2.0,-100.00,East,98,3.0,4.0,87,-99.99,,,-99.99,,2013-02-11 15:51:00,
2013-02-11 09:01:00,7.0,4.0,-100.00,East,93,4.0,5.0,87,-99.99,,,-99.99,,2013-02-11 16:01:00,
2013-02-11 09:11:00,7.0,4.0,-100.00,East,93,4.0,5.0,87,-99.99,,,-99.99,,2013-02-11 16:11:00,
2013-02-11 09:21:00,7.0,4.0,-100.00,East,93,4.0,5.0,87,-99.99,,,-99.99,,2013-02-11 16:21:00,
2013-02-11 09:31:00,9.0,6.0,-100.00,SE,126,4.0,5.0,88,-99.99,,,-99.99,,2013-02-11 16:31:00,
2013-02-11 09:41:00,11.0,7.0,-100.00,NE,38,3.0,4.0,85,-99.99,,,-99.99,,2013-02-11 16:41:00,
2013-02-11 09:52:00,11.0,7.0,-100.00,NE,38,3.0,4.0,85,-99.99,,,-99.99,,2013-02-11 16:52:00,
2013-02-11 10:01:00,11.0,7.0,-100.00,NE,38,3.0,4.0,85,-99.99,,,-99.99,,2013-02-11 17:01:00,
2013-02-11 10:11:00,12.0,8.0,-100.00,East,99,3.0,4.0,84,-99.99,,,-99.99,,2013-02-11 17:11:00,
2013-02-11 10:21:00,12.0,8.0,-100.00,East,87,4.0,5.0,82,-99.99,,,-99.99,,2013-02-11 17:21:00,
2013-02-11 10:32:00,13.0,8.0,-100.00,ESE,103,4.0,5.0,80,-99.99,,,-99.99,,2013-02-11 17:32:00,
2013-02-11 10:41:00,14.0,8.0,-100.00,East,87,5.0,6.0,77,-99.99,,,-99.99,,2013-02-11 17:41:00,
2013-02-11 10:52:00,14.0,8.0,-100.00,East,87,5.0,6.0,77,-99.99,,,-99.99,,2013-02-11 17:52:00,
2013-02-11 11:01:00,14.0,8.0,-100.00,East,87,5.0,6.0,77,-99.99,,,-99.99,,2013-02-11 18:01:00,
2013-02-11 11:11:00,15.0,9.0,-100.00,ENE,74,3.0,5.0,74,-99.99,,,-99.99,,2013-02-11 18:11:00,
2013-02-11 11:21:00,15.0,9.0,-100.00,East,99,6.0,6.0,73,-99.99,,,-99.99,,2013-02-11 18:21:00,
2013-02-11 11:32:00,15.0,9.0,-100.00,East,99,6.0,6.0,73,-99.99,,,-99.99,,2013-02-11 18:32:00,
2013-02-11 11:41:00,17.0,10.0,-100.00,ESE,108,3.0,6.0,71,-99.99,,,-99.99,,2013-02-11 18:41:00,
2013-02-11 11:50:00,20.0,11.0,-100.00,South,186,4.0,6.0,66,-99.99,,,-99.99,,2013-02-11 18:50:00,
2013-02-11 11:52:00,17.0,10.0,-100.00,ESE,108,3.0,6.0,71,-99.99,,,-99.99,,2013-02-11 18:52:00,
2013-02-11 12:01:00,17.0,10.0,-100.00,ESE,108,3.0,6.0,71,-99.99,,,-99.99,,2013-02-11 19:01:00,
2013-02-11 12:11:00,17.0,9.0,-100.00,East,95,4.0,6.0,69,-99.99,,,-99.99,,2013-02-11 19:11:00,
2013-02-11 12:21:00,20.0,11.0,-100.00,South,186,4.0,6.0,66,-99.99,,,-99.99,,2013-02-11 19:21:00,
2013-02-11 12:31:00,20.0,11.0,-100.00,South,186,4.0,6.0,66,-99.99,,,-99.99,,2013-02-11 19:31:00,
2013-02-11 12:41:00,20.0,11.0,-100.00,South,186,4.0,6.0,66,-99.99,,,-99.99,,2013-02-11 19:41:00,
2013-02-11 13:01:00,20.0,10.0,-100.00,East,92,7.0,7.0,64,-99.99,,,-99.99,,2013-02-11 20:01:00,
2013-02-11 13:11:00,21.0,10.0,-100.00,ESE,112,7.0,8.0,62,-99.99,,,-99.99,,2013-02-11 20:11:00,
2013-02-11 13:21:00,21.0,10.0,-100.00,ESE,112,7.0,8.0,62,-99.99,,,-99.99,,2013-02-11 20:21:00,
2013-02-11 13:31:00,21.0,10.0,-100.00,ESE,112,7.0,8.0,62,-99.99,,,-99.99,,2013-02-11 20:31:00,
2013-02-11 13:41:00,24.0,11.0,-100.00,West,274,7.0,9.0,56,-99.99,,,-99.99,,2013-02-11 20:41:00,
2013-02-11 13:52:00,24.0,11.0,-100.00,West,274,7.0,9.0,56,-99.99,,,-99.99,,2013-02-11 20:52:00,
2013-02-11 14:02:00,24.0,11.0,-100.00,West,274,7.0,9.0,56,-99.99,,,-99.99,,2013-02-11 21:02:00,
2013-02-11 14:11:00,24.0,13.0,-100.00,West,280,10.0,14.0,63,-99.99,,,-99.99,,2013-02-11 21:11:00,
2013-02-11 14:21:00,24.0,13.0,-100.00,West,280,10.0,14.0,63,-99.99,,,-99.99,,2013-02-11 21:21:00,
2013-02-11 14:31:00,22.0,13.0,-100.00,West,275,13.0,18.0,65,-99.99,,,-99.99,,2013-02-11 21:31:00,
2013-02-11 14:41:00,23.0,12.0,-100.00,West,271,13.0,16.0,63,-99.99,,,-99.99,,2013-02-11 21:41:00,
2013-02-11 14:51:00,23.0,12.0,-100.00,West,271,13.0,16.0,63,-99.99,,,-99.99,,2013-02-11 21:51:00,
2013-02-11 15:01:00,23.0,10.0,-100.00,WSW,253,12.0,19.0,57,-99.99,,,-99.99,,2013-02-11 22:01:00,
2013-02-11 15:11:00,23.0,10.0,-100.00,West,274,12.0,15.0,58,-99.99,,,-99.99,,2013-02-11 22:11:00,
2013-02-11 15:21:00,23.0,10.0,-100.00,West,274,12.0,15.0,58,-99.99,,,-99.99,,2013-02-11 22:21:00,
2013-02-11 15:31:00,23.0,9.0,-100.00,West,260,14.0,19.0,56,-99.99,,,-99.99,,2013-02-11 22:31:00,
2013-02-11 15:41:00,22.0,11.0,-100.00,West,274,11.0,14.0,60,-99.99,,,-99.99,,2013-02-11 22:41:00,
2013-02-11 15:51:00,22.0,11.0,-100.00,West,274,11.0,14.0,60,-99.99,,,-99.99,,2013-02-11 22:51:00,
2013-02-11 16:01:00,23.0,10.0,-100.00,WSW,255,9.0,15.0,56,-99.99,,,-99.99,,2013-02-11 23:01:00,
2013-02-11 16:11:00,23.0,10.0,-100.00,WSW,255,9.0,15.0,56,-99.99,,,-99.99,,2013-02-11 23:11:00,
2013-02-11 16:21:00,22.0,10.0,-100.00,WSW,255,12.0,16.0,58,-99.99,,,-99.99,,2013-02-11 23:21:00,
2013-02-11 16:31:00,22.0,10.0,-100.00,WSW,255,12.0,16.0,58,-99.99,,,-99.99,,2013-02-11 23:31:00,
2013-02-11 16:41:00,23.0,9.0,-100.00,WSW,246,7.0,13.0,54,-99.99,,,-99.99,,2013-02-11 23:41:00,
2013-02-11 16:52:00,23.0,9.0,-100.00,WSW,246,7.0,13.0,54,-99.99,,,-99.99,,2013-02-11 23:52:00,
2013-02-11 17:01:00,23.0,8.0,-100.00,SW,233,7.0,11.0,51,-99.99,,,-99.99,,2013-02-12 00:01:00,
2013-02-11 17:11:00,23.0,9.0,-100.00,WSW,257,7.0,9.0,53,-99.99,,,-99.99,,2013-02-12 00:11:00,
2013-02-11 17:21:00,23.0,9.0,-100.00,WSW,257,7.0,9.0,53,-99.99,,,-99.99,,2013-02-12 00:21:00,
2013-02-11 17:31:00,21.0,8.0,-100.00,West,260,11.0,13.0,56,-99.99,,,-99.99,,2013-02-12 00:31:00,
2013-02-11 17:41:00,21.0,8.0,-100.00,West,260,11.0,13.0,56,-99.99,,,-99.99,,2013-02-12 00:41:00,
2013-02-11 17:51:00,20.0,9.0,-100.00,WSW,248,9.0,15.0,60,-99.99,,,-99.99,,2013-02-12 00:51:00,
2013-02-11 18:01:00,19.0,8.0,-100.00,NW,307,3.0,8.0,59,-99.99,,,-99.99,,2013-02-12 01:01:00,
2013-02-11 18:11:00,19.0,9.0,-100.00,NNW,333,3.0,5.0,64,-99.99,,,-99.99,,2013-02-12 01:11:00,
2013-02-11 18:21:00,19.0,9.0,-100.00,NNW,333,3.0,5.0,64,-99.99,,,-99.99,,2013-02-12 01:21:00,
2013-02-11 18:31:00,18.0,9.0,-100.00,WNW,292,8.0,11.0,67,-99.99,,,-99.99,,2013-02-12 01:31:00,
2013-02-11 18:41:00,18.0,10.0,-100.00,WNW,287,10.0,13.0,70,-99.99,,,-99.99,,2013-02-12 01:41:00,
2013-02-11 18:51:00,18.0,10.0,-100.00,WNW,287,10.0,13.0,70,-99.99,,,-99.99,,2013-02-12 01:51:00,
2013-02-11 19:01:00,17.0,9.0,-100.00,WSW,257,5.0,7.0,71,-99.99,,,-99.99,,2013-02-12 02:01:00,
2013-02-11 19:11:00,16.0,9.0,-100.00,West,269,5.0,6.0,72,-99.99,,,-99.99,,2013-02-12 02:11:00,
2013-02-11 19:21:00,16.0,9.0,-100.00,West,269,5.0,6.0,72,-99.99,,,-99.99,,2013-02-12 02:21:00,
2013-02-11 19:31:00,15.0,9.0,-100.00,WNW,282,5.0,6.0,74,-99.99,,,-99.99,,2013-02-12 02:31:00,
2013-02-11 19:41:00,15.0,8.0,-100.00,West,265,7.0,8.0,75,-99.99,,,-99.99,,2013-02-12 02:41:00,
2013-02-11 19:52:00,15.0,8.0,-100.00,West,265,7.0,8.0,75,-99.99,,,-99.99,,2013-02-12 02:52:00,
2013-02-11 20:02:00,14.0,7.0,-100.00,WSW,252,5.0,7.0,73,-99.99,,,-99.99,,2013-02-12 03:02:00,
2013-02-11 20:11:00,13.0,6.0,-100.00,West,269,1.0,6.0,73,-99.99,,,-99.99,,2013-02-12 03:11:00,
2013-02-11 20:21:00,13.0,6.0,-100.00,West,269,1.0,6.0,73,-99.99,,,-99.99,,2013-02-12 03:21:00,
2013-02-11 20:31:00,12.0,6.0,-100.00,SE,130,0.0,5.0,73,-99.99,,,-99.99,,2013-02-12 03:31:00,
2013-02-11 20:41:00,12.0,6.0,-100.00,SE,130,0.0,5.0,73,-99.99,,,-99.99,,2013-02-12 03:41:00,
2013-02-11 20:51:00,12.0,6.0,-100.00,ENE,58,0.0,3.0,75,-99.99,,,-99.99,,2013-02-12 03:51:00,
2013-02-11 21:01:00,12.0,6.0,-100.00,ENE,58,0.0,3.0,75,-99.99,,,-99.99,,2013-02-12 04:01:00,
2013-02-11 21:11:00,7.0,2.0,-100.00,ENE,69,3.0,5.0,77,-99.99,,,-99.99,,2013-02-12 04:11:00,
2013-02-11 21:21:00,7.0,2.0,-100.00,ENE,69,3.0,5.0,77,-99.99,,,-99.99,,2013-02-12 04:21:00,
2013-02-11 21:31:00,7.0,2.0,-100.00,ENE,78,3.0,4.0,77,-99.99,,,-99.99,,2013-02-12 04:31:00,
2013-02-11 21:41:00,8.0,2.0,-100.00,East,92,2.0,4.0,77,-99.99,,,-99.99,,2013-02-12 04:41:00,
2013-02-11 21:51:00,8.0,2.0,-100.00,ENE,75,4.0,5.0,78,-99.99,,,-99.99,,2013-02-12 04:51:00,
2013-02-11 22:01:00,9.0,3.0,-100.00,ENE,78,3.0,4.0,77,-99.99,,,-99.99,,2013-02-12 05:01:00,
2013-02-11 22:11:00,9.0,4.0,-100.00,East,92,2.0,4.0,77,-99.99,,,-99.99,,2013-02-12 05:11:00,
2013-02-11 22:21:00,9.0,4.0,-100.00,East,92,2.0,4.0,77,-99.99,,,-99.99,,2013-02-12 05:21:00,
2013-02-11 22:31:00,7.0,1.0,-100.00,East,86,3.0,4.0,77,-99.99,,,-99.99,,2013-02-12 05:31:00,
2013-02-11 22:41:00,7.0,1.0,-100.00,East,86,3.0,4.0,77,-99.99,,,-99.99,,2013-02-12 05:41:00,
2013-02-11 22:52:00,7.0,1.0,-100.00,East,101,2.0,4.0,76,-99.99,,,-99.99,,2013-02-12 05:52:00,
2013-02-11 23:01:00,5.0,0.0,-100.00,East,93,1.0,2.0,77,-99.99,,,-99.99,,2013-02-12 06:01:00,
2013-02-11 23:12:00,5.0,0.0,-100.00,East,93,1.0,2.0,77,-99.99,,,-99.99,,2013-02-12 06:12:00,
2013-02-11 23:21:00,6.0,1.0,-100.00,East,93,1.0,3.0,78,-99.99,,,-99.99,,2013-02-12 06:21:00,
2013-02-11 23:31:00,6.0,1.0,-100.00,East,93,1.0,3.0,78,-99.99,,,-99.99,,2013-02-12 06:31:00,
2013-02-11 23:42:00,5.0,-1.0,-100.00,East,92,2.0,2.0,78,-99.99,,,-99.99,,2013-02-12 06:42:00,
2013-02-11 23:51:00,5.0,-1.0,-100.00,East,92,2.0,2.0,78,-99.99,,,-99.99,,2013-02-12 06:51:00,